Terminal Aerodrome Forecast
Issued by NWS

Home | Current Version | Previous Version | Text Only | Print | Product List | Glossary On
Versions: 1 2 3 4 5 6 7 8 9 10 11 12 13
000
FTUS46 KLOX 042340
TAFBUR
TAF
KBUR 042340Z 0500/0524 18012KT P6SM SKC
     FM050200 13007KT P6SM SKC
     FM050800 VRB03KT 5SM BR OVC007
     FM051700 15005KT P6SM FEW010
     FM052100 18010KT P6SM SKC=

USA.gov is the U.S. government's official web portal to all federal, state and local government web resources and services.